createdAt,value
2019-06-07T00:00:38.674Z,2.15
2019-06-07T00:03:10.593Z,2.27
2019-06-07T00:05:39.979Z,2.10
2019-06-07T00:08:17.187Z,1.95
2019-06-07T00:10:41.544Z,1.60
2019-06-07T00:13:12.924Z,2.05
2019-06-07T00:15:42.349Z,1.62
2019-06-07T00:18:14.987Z,1.60
2019-06-07T00:20:42.845Z,1.30
2019-06-07T00:23:14.934Z,1.77
2019-06-07T00:25:43.525Z,1.62
2019-06-07T00:28:13.365Z,1.75
2019-06-07T00:30:51.766Z,1.50
2019-06-07T00:33:18.776Z,1.77
2019-06-07T00:35:46.400Z,1.90
2019-06-07T00:38:18.870Z,1.70
2019-06-07T00:40:46.955Z,1.47
2019-06-07T00:43:17.552Z,1.40
2019-06-07T00:45:47.451Z,1.60
2019-06-07T00:48:27.454Z,1.47
2019-06-07T00:50:47.987Z,1.87
2019-06-07T00:53:26.959Z,1.75
2019-06-07T00:55:48.467Z,1.30
2019-06-07T00:58:21.820Z,1.90
2019-06-07T01:00:50.484Z,2.00
2019-06-07T01:03:22.489Z,1.60
2019-06-07T01:05:50.952Z,1.37
2019-06-07T01:08:22.794Z,1.60
2019-06-07T01:10:53.966Z,1.57
2019-06-07T01:13:26.173Z,1.60
2019-06-07T01:15:53.635Z,1.98
2019-06-07T01:18:37.265Z,1.70
2019-06-07T01:20:55.140Z,2.10
2019-06-07T01:24:03.288Z,1.67
2019-06-07T01:25:55.612Z,2.00
2019-06-07T01:28:27.092Z,1.65
2019-06-07T01:30:57.162Z,1.92
2019-06-07T01:33:46.437Z,1.90
2019-06-07T01:35:57.766Z,1.80
2019-06-07T01:38:29.749Z,1.77
2019-06-07T01:40:58.236Z,1.72
2019-06-07T01:43:30.478Z,1.80
2019-06-07T01:46:12.913Z,1.80
2019-06-07T01:48:49.576Z,1.70
2019-06-07T01:51:13.376Z,1.90
2019-06-07T01:53:42.841Z,2.20
2019-06-07T01:56:12.315Z,1.92
2019-06-07T01:58:41.712Z,1.60
2019-06-07T02:01:35.274Z,2.52
2019-06-07T02:04:01.528Z,2.08
2019-06-07T02:06:32.123Z,2.00
2019-06-07T02:09:01.968Z,2.15
2019-06-07T02:11:33.713Z,2.20
2019-06-07T02:14:05.010Z,1.98
2019-06-07T02:16:34.404Z,1.98
2019-06-07T02:19:04.080Z,2.20
2019-06-07T02:21:34.548Z,1.72
2019-06-07T02:24:04.391Z,2.12
2019-06-07T02:26:33.784Z,2.02
2019-06-07T02:29:03.171Z,2.12
2019-06-07T02:31:39.144Z,2.10
2019-06-07T02:34:03.654Z,1.75
2019-06-07T02:36:41.088Z,2.40
2019-06-07T02:39:06.756Z,1.92
2019-06-07T02:41:40.038Z,1.75
2019-06-07T02:44:07.565Z,1.75
2019-06-07T02:46:46.847Z,1.95
2019-06-07T02:49:08.060Z,2.25
2019-06-07T02:51:41.552Z,1.82
2019-06-07T02:54:08.536Z,2.10
2019-06-07T02:56:52.278Z,2.35
2019-06-07T02:59:10.642Z,2.10
2019-06-07T03:01:42.534Z,1.85
2019-06-07T03:04:11.813Z,2.22
2019-06-07T03:06:44.035Z,2.00
2019-06-07T03:09:13.470Z,2.00
2019-06-07T03:11:45.486Z,2.90
2019-06-07T03:14:17.000Z,2.55
2019-06-07T03:16:53.503Z,2.10
2019-06-07T03:19:34.644Z,2.30
2019-06-07T03:22:04.787Z,2.40
2019-06-07T03:24:39.145Z,2.37
2019-06-07T03:27:34.231Z,2.85
2019-06-07T03:29:41.332Z,2.70
2019-06-07T03:32:15.438Z,2.65
2019-06-07T03:34:44.837Z,2.12
2019-06-07T03:37:14.291Z,1.95
2019-06-07T03:39:43.688Z,2.35
2019-06-07T03:42:13.091Z,2.05
2019-06-07T03:44:42.496Z,2.75
2019-06-07T03:47:11.887Z,3.08
2019-06-07T03:49:42.576Z,2.90
2019-06-07T03:52:27.191Z,2.52
2019-06-07T03:54:56.866Z,2.87
2019-06-07T03:57:28.644Z,2.50
2019-06-07T03:59:57.419Z,2.87
2019-06-07T04:02:27.855Z,2.52
2019-06-07T04:04:57.390Z,2.42
2019-06-07T04:07:28.954Z,2.77
2019-06-07T04:09:59.065Z,2.47
2019-06-07T04:12:28.567Z,2.47
2019-06-07T04:14:58.124Z,2.77
2019-06-07T04:17:31.141Z,2.52
2019-06-07T04:20:02.026Z,2.55
2019-06-07T04:22:35.668Z,3.12
2019-06-07T04:25:05.772Z,2.70
2019-06-07T04:27:37.779Z,2.58
2019-06-07T04:30:08.751Z,2.80
2019-06-07T04:32:40.638Z,2.70
2019-06-07T04:35:09.935Z,3.22
2019-06-07T04:37:41.541Z,2.42
2019-06-07T04:40:12.091Z,2.58
2019-06-07T04:42:45.169Z,2.37
2019-06-07T04:45:32.933Z,3.15
2019-06-07T04:47:48.907Z,3.22
2019-06-07T04:50:18.377Z,2.67
2019-06-07T04:52:47.991Z,2.45
2019-06-07T04:55:17.388Z,2.77
2019-06-07T04:57:46.768Z,2.40
2019-06-07T05:00:49.892Z,2.77
2019-06-07T05:02:50.591Z,2.20
2019-06-07T05:05:20.114Z,2.40
2019-06-07T05:07:49.520Z,3.22
2019-06-07T05:10:18.907Z,2.52
2019-06-07T05:12:48.389Z,2.62
2019-06-07T05:15:17.936Z,2.72
2019-06-07T05:17:47.340Z,2.25
2019-06-07T05:20:17.045Z,2.30
2019-06-07T05:22:46.731Z,2.67
2019-06-07T05:25:16.709Z,2.65
2019-06-07T05:27:46.915Z,2.72
2019-06-07T05:30:58.537Z,2.55
2019-06-07T05:33:13.221Z,2.77
2019-06-07T05:35:43.538Z,2.60
2019-06-07T05:38:13.176Z,2.58
2019-06-07T05:40:48.564Z,2.83
2019-06-07T05:43:23.700Z,2.62
2019-06-07T05:45:53.436Z,3.15
2019-06-07T05:48:23.047Z,2.92
2019-06-07T05:50:56.923Z,2.65
2019-06-07T05:53:24.688Z,2.47
2019-06-07T05:55:54.162Z,2.85
2019-06-07T05:58:23.560Z,2.65
2019-06-07T06:00:52.939Z,2.75
2019-06-07T06:03:22.324Z,2.92
2019-06-07T06:05:55.341Z,2.70
2019-06-07T06:08:22.809Z,2.42
2019-06-07T06:10:52.193Z,2.90
2019-06-07T06:13:21.963Z,2.27
2019-06-07T06:16:01.310Z,2.33
2019-06-07T06:18:22.493Z,2.52
2019-06-07T06:21:15.502Z,2.47
2019-06-07T06:23:43.361Z,2.92
2019-06-07T06:26:13.479Z,2.58
2019-06-07T06:28:45.401Z,2.55
2019-06-07T06:31:14.880Z,2.35
2019-06-07T06:33:45.259Z,2.25
2019-06-07T06:36:15.489Z,2.08
2019-06-07T06:38:47.148Z,2.40
2019-06-07T06:41:16.894Z,2.67
2019-06-07T06:43:51.760Z,2.17
2019-06-07T06:46:37.428Z,3.25
2019-06-07T06:48:54.971Z,2.58
2019-06-07T06:51:20.324Z,2.35
2019-06-07T06:53:52.566Z,2.52
2019-06-07T06:56:21.260Z,2.70
2019-06-07T06:59:26.926Z,2.98
2019-06-07T07:01:21.819Z,2.87
2019-06-07T07:04:11.280Z,2.62
2019-06-07T07:06:26.290Z,2.72
2019-06-07T07:08:54.419Z,2.40
2019-06-07T07:11:52.324Z,3.50
2019-06-07T07:14:08.687Z,2.70
2019-06-07T07:16:38.109Z,2.45
2019-06-07T07:19:07.507Z,2.45
2019-06-07T07:21:36.904Z,2.98
2019-06-07T07:24:21.096Z,2.33
2019-06-07T07:26:37.728Z,3.22
2019-06-07T07:29:07.139Z,3.02
2019-06-07T07:31:36.603Z,2.83
2019-06-07T07:34:32.540Z,2.85
2019-06-07T07:36:39.764Z,2.77
2019-06-07T07:39:08.317Z,2.75
2019-06-07T07:41:37.767Z,3.02
2019-06-07T07:44:07.986Z,2.17
2019-06-07T07:46:38.268Z,2.62
2019-06-07T07:49:07.720Z,2.37
2019-06-07T07:51:37.245Z,2.75
2019-06-07T07:54:10.498Z,2.80
2019-06-07T07:56:37.707Z,2.92
2019-06-07T07:59:08.129Z,2.55
2019-06-07T08:01:37.762Z,2.50
2019-06-07T08:04:07.236Z,2.33
2019-06-07T08:06:36.700Z,2.45
2019-06-07T08:09:07.823Z,2.42
2019-06-07T08:11:37.196Z,2.60
2019-06-07T08:14:06.595Z,3.10
2019-06-07T08:16:35.967Z,3.02
2019-06-07T08:19:05.531Z,2.80
2019-06-07T08:21:34.976Z,2.25
2019-06-07T08:24:05.441Z,2.47
2019-06-07T08:26:35.007Z,2.47
2019-06-07T08:29:04.773Z,2.17
2019-06-07T08:31:34.151Z,2.72
2019-06-07T08:34:03.689Z,2.60
2019-06-07T08:36:41.909Z,2.25
2019-06-07T08:39:07.805Z,2.72
2019-06-07T08:41:37.520Z,2.62
2019-06-07T08:44:22.708Z,2.10
2019-06-07T08:46:38.067Z,2.10
2019-06-07T08:49:07.468Z,2.65
2019-06-07T08:51:37.032Z,2.83
2019-06-07T08:54:21.798Z,2.60
2019-06-07T08:56:53.679Z,2.85
2019-06-07T08:59:22.649Z,2.30
2019-06-07T09:01:57.981Z,2.60
2019-06-07T09:04:23.916Z,1.92
2019-06-07T09:07:07.354Z,2.10
2019-06-07T09:09:24.394Z,2.33
2019-06-07T09:11:54.715Z,2.02
2019-06-07T09:14:24.867Z,1.77
2019-06-07T09:17:00.167Z,2.33
2019-06-07T09:19:25.343Z,1.92
2019-06-07T09:21:57.444Z,2.60
2019-06-07T09:24:26.002Z,2.20
2019-06-07T09:26:55.930Z,2.12
2019-06-07T09:29:26.729Z,2.00
2019-06-07T09:31:59.765Z,2.02
2019-06-07T09:34:27.381Z,2.10
2019-06-07T09:36:58.178Z,2.05
2019-06-07T09:39:27.935Z,2.45
2019-06-07T09:41:58.687Z,1.77
2019-06-07T09:44:42.413Z,2.10
2019-06-07T09:47:30.456Z,1.95
2019-06-07T09:49:43.011Z,2.10
2019-06-07T09:52:12.523Z,1.57
2019-06-07T09:55:05.822Z,1.77
2019-06-07T09:57:17.421Z,2.08
2019-06-07T10:00:38.266Z,2.35
2019-06-07T10:02:36.092Z,1.80
2019-06-07T10:05:13.677Z,1.70
2019-06-07T10:07:51.450Z,2.05
2019-06-07T10:12:41.407Z,2.20
2019-06-07T10:15:12.971Z,1.67
2019-06-07T10:17:42.373Z,1.98
2019-06-07T10:20:12.395Z,1.92
2019-06-07T10:22:41.992Z,1.80
2019-06-07T10:25:11.830Z,1.90
2019-06-07T10:27:41.312Z,1.82
2019-06-07T10:30:12.117Z,1.80
2019-06-07T10:32:41.530Z,1.72
2019-06-07T10:35:16.066Z,1.60
2019-06-07T10:37:43.615Z,1.92
2019-06-07T10:40:13.733Z,1.55
2019-06-07T10:42:43.136Z,1.67
2019-06-07T10:45:12.964Z,1.87
2019-06-07T10:47:42.556Z,1.87
2019-06-07T10:50:12.703Z,1.80
2019-06-07T10:52:42.401Z,1.50
2019-06-07T10:55:12.696Z,1.60
2019-06-07T10:57:43.265Z,1.90
2019-06-07T11:00:14.533Z,1.80
2019-06-07T11:02:44.004Z,1.40
2019-06-07T11:05:14.490Z,1.70
2019-06-07T11:07:44.008Z,1.42
2019-06-07T11:10:19.076Z,1.75
2019-06-07T11:12:59.203Z,1.70
2019-06-07T11:15:28.696Z,1.30
2019-06-07T11:17:59.172Z,1.42
2019-06-07T11:20:28.644Z,1.85
2019-06-07T11:22:58.049Z,1.60
2019-06-07T11:25:27.440Z,1.20
2019-06-07T11:27:56.826Z,1.77
2019-06-07T11:30:26.231Z,1.50
2019-06-07T11:32:55.619Z,1.52
2019-06-07T11:35:25.127Z,1.37
2019-06-07T11:37:54.619Z,1.57
2019-06-07T11:40:31.985Z,1.42
2019-06-07T11:42:55.153Z,1.50
2019-06-07T11:45:24.562Z,1.27
2019-06-07T11:47:54.008Z,1.40
2019-06-07T11:50:23.395Z,1.72
2019-06-07T11:52:52.795Z,1.60
2019-06-07T11:55:22.243Z,1.45
2019-06-07T11:57:51.640Z,1.30
2019-06-07T12:00:21.422Z,1.60
2019-06-07T12:02:50.890Z,1.60
2019-06-07T12:05:20.503Z,1.45
2019-06-07T12:07:50.114Z,1.60
2019-06-07T12:10:22.783Z,1.30
2019-06-07T12:12:51.018Z,1.20
2019-06-07T12:15:20.553Z,1.55
2019-06-07T12:17:50.042Z,1.40
2019-06-07T12:20:21.103Z,1.50
2019-06-07T12:22:50.682Z,1.37
2019-06-07T12:25:24.847Z,1.37
2019-06-07T12:27:51.329Z,1.40
2019-06-07T12:30:27.267Z,1.30
2019-06-07T12:32:52.181Z,1.32
2019-06-07T12:35:21.905Z,1.20
2019-06-07T12:37:51.458Z,1.72
2019-06-07T12:40:30.064Z,1.40
2019-06-07T12:42:53.372Z,1.72
2019-06-07T12:45:43.696Z,1.10
2019-06-07T12:47:54.043Z,1.50
2019-06-07T12:50:39.478Z,1.55
2019-06-07T12:52:55.551Z,1.30
2019-06-07T12:55:24.979Z,1.70
2019-06-07T12:57:54.425Z,1.70
2019-06-07T13:00:24.467Z,1.20
2019-06-07T13:02:54.037Z,1.20
2019-06-07T13:05:23.879Z,1.25
2019-06-07T13:07:53.446Z,1.10
2019-06-07T13:10:23.991Z,1.50
2019-06-07T13:12:54.604Z,1.37
2019-06-07T13:15:25.985Z,1.98
2019-06-07T13:17:55.462Z,1.65
2019-06-07T13:20:45.719Z,1.37
2019-06-07T13:23:16.069Z,1.40
2019-06-07T13:25:46.784Z,1.37
2019-06-07T13:28:17.272Z,1.35
2019-06-07T13:30:47.340Z,1.47
2019-06-07T13:33:16.898Z,1.45
2019-06-07T13:35:46.414Z,1.57
2019-06-07T13:38:25.571Z,1.12
2019-06-07T13:40:56.295Z,1.40
2019-06-07T13:43:28.148Z,1.10
2019-06-07T13:45:57.761Z,1.30
2019-06-07T13:48:27.845Z,1.30
2019-06-07T13:50:57.500Z,1.15
2019-06-07T13:53:41.279Z,1.02
2019-06-07T13:56:10.755Z,1.37
2019-06-07T13:58:40.220Z,0.95
2019-06-07T14:01:10.524Z,0.95
2019-06-07T14:03:40.006Z,0.98
2019-06-07T14:06:09.371Z,1.10
2019-06-07T14:08:39.120Z,1.02
2019-06-07T14:11:08.527Z,0.75
2019-06-07T14:13:37.992Z,0.82
2019-06-07T14:16:07.486Z,1.00
2019-06-07T14:18:36.953Z,0.88
2019-06-07T14:21:06.347Z,0.90
2019-06-07T14:23:48.284Z,0.90
2019-06-07T14:26:07.045Z,0.88
2019-06-07T14:28:36.459Z,1.10
2019-06-07T14:31:05.932Z,1.57
2019-06-07T14:33:35.334Z,0.80
2019-06-07T14:36:04.785Z,1.00
2019-06-07T14:38:37.467Z,0.80
2019-06-07T14:41:05.266Z,0.95
2019-06-07T14:43:34.669Z,0.82
2019-06-07T14:46:04.342Z,0.70
2019-06-07T14:48:34.592Z,0.60
2019-06-07T14:51:05.800Z,1.00
2019-06-07T14:53:35.302Z,0.80
2019-06-07T14:56:04.911Z,1.02
2019-06-07T14:58:40.003Z,1.20
2019-06-07T15:01:05.675Z,1.10
2019-06-07T15:03:35.096Z,0.65
2019-06-07T15:06:04.496Z,1.00
2019-06-07T15:08:34.904Z,1.10
2019-06-07T15:11:04.485Z,1.00
2019-06-07T15:13:35.725Z,0.80
2019-06-07T15:16:05.584Z,0.95
2019-06-07T15:18:36.168Z,0.85
2019-06-07T15:21:06.836Z,0.90
2019-06-07T15:23:36.406Z,0.95
2019-06-07T15:26:07.040Z,0.90
2019-06-07T15:28:38.143Z,0.70
2019-06-07T15:31:27.842Z,0.62
2019-06-07T15:33:57.385Z,0.75
2019-06-07T15:36:28.084Z,1.02
2019-06-07T15:38:57.888Z,0.78
2019-06-07T15:41:28.808Z,0.72
2019-06-07T15:43:58.833Z,0.90
2019-06-07T15:46:29.433Z,0.80
2019-06-07T15:48:58.982Z,0.72
2019-06-07T15:51:28.360Z,0.85
2019-06-07T15:53:58.260Z,0.80
2019-06-07T15:56:27.805Z,0.70
2019-06-07T15:58:58.173Z,1.10
2019-06-07T16:01:27.614Z,0.68
2019-06-07T16:03:57.110Z,0.70
2019-06-07T16:06:26.504Z,0.53
2019-06-07T16:08:55.904Z,0.80
2019-06-07T16:11:25.379Z,0.72
2019-06-07T16:13:54.841Z,0.85
2019-06-07T16:16:24.628Z,0.53
2019-06-07T16:18:54.053Z,0.90
2019-06-07T16:21:23.453Z,0.80
2019-06-07T16:23:52.840Z,0.70
2019-06-07T16:26:22.289Z,0.60
2019-06-07T16:28:51.756Z,0.82
2019-06-07T16:31:21.136Z,0.70
2019-06-07T16:33:50.654Z,0.62
2019-06-07T16:36:20.386Z,0.62
2019-06-07T16:38:50.856Z,0.75
2019-06-07T16:41:20.317Z,0.80
2019-06-07T16:43:49.735Z,0.78
2019-06-07T16:46:19.130Z,0.68
2019-06-07T16:48:49.120Z,1.10
2019-06-07T16:51:18.748Z,0.60
2019-06-07T16:53:49.285Z,0.90
2019-06-07T16:56:18.670Z,0.90
2019-06-07T16:58:48.735Z,0.98
2019-06-07T17:01:18.316Z,0.88
2019-06-07T17:03:47.773Z,1.30
2019-06-07T17:06:17.177Z,1.32
2019-06-07T17:08:46.560Z,0.90
2019-06-07T17:11:16.046Z,0.98
2019-06-07T17:13:46.481Z,1.05
2019-06-07T17:16:15.976Z,0.72
2019-06-07T17:18:45.469Z,0.70
2019-06-07T17:21:14.914Z,1.07
2019-06-07T17:23:45.314Z,1.10
2019-06-07T17:26:14.857Z,1.12
2019-06-07T17:28:44.255Z,1.00
2019-06-07T17:31:13.644Z,0.80
2019-06-07T17:33:43.956Z,0.80
2019-06-07T17:36:13.534Z,1.20
2019-06-07T17:38:42.988Z,1.32
2019-06-07T17:41:41.874Z,0.93
2019-06-07T17:44:03.022Z,1.20
2019-06-07T17:46:32.581Z,1.10
2019-06-07T17:49:02.125Z,0.80
2019-06-07T17:51:31.584Z,0.93
2019-06-07T17:54:00.988Z,0.82
2019-06-07T17:56:30.433Z,1.37
2019-06-07T17:58:59.908Z,0.95
2019-06-07T18:01:41.202Z,1.00
2019-06-07T18:04:14.440Z,1.12
2019-06-07T18:06:45.368Z,1.12
2019-06-07T18:09:15.448Z,1.47
2019-06-07T18:11:45.838Z,1.47
2019-06-07T18:14:15.437Z,1.30
2019-06-07T18:16:46.330Z,1.10
2019-06-07T18:19:16.000Z,1.15
2019-06-07T18:21:45.471Z,1.20
2019-06-07T18:24:14.871Z,1.17
2019-06-07T18:26:44.271Z,2.40
2019-06-07T18:29:13.748Z,1.42
2019-06-07T18:31:43.321Z,1.82
2019-06-07T18:34:12.848Z,1.52
2019-06-07T18:36:42.375Z,1.55
2019-06-07T18:39:11.817Z,1.80
2019-06-07T18:41:41.218Z,1.42
2019-06-07T18:44:21.062Z,1.37
2019-06-07T18:46:41.998Z,1.37
2019-06-07T18:49:11.545Z,1.20
2019-06-07T18:51:41.023Z,1.37
2019-06-07T18:54:10.436Z,1.47
2019-06-07T18:56:39.889Z,1.20
2019-06-07T18:59:09.361Z,1.42
2019-06-07T19:01:38.920Z,1.10
2019-06-07T19:04:10.402Z,1.10
2019-06-07T19:06:39.866Z,1.05
2019-06-07T19:09:23.467Z,1.70
2019-06-07T19:11:53.166Z,1.20
2019-06-07T19:14:36.258Z,1.30
2019-06-07T19:16:53.958Z,1.07
2019-06-07T19:19:23.526Z,1.30
2019-06-07T19:21:54.004Z,1.00
2019-06-07T19:24:23.597Z,1.00
2019-06-07T19:26:54.420Z,1.27
2019-06-07T19:29:23.873Z,0.85
2019-06-07T19:31:53.327Z,0.90
2019-06-07T19:34:22.733Z,1.20
2019-06-07T19:36:53.497Z,0.70
2019-06-07T19:39:24.352Z,1.05
2019-06-07T19:41:54.010Z,0.90
2019-06-07T19:44:23.526Z,0.90
2019-06-07T19:46:54.253Z,0.80
2019-06-07T19:49:23.791Z,1.00
2019-06-07T19:51:53.198Z,0.78
2019-06-07T19:54:22.654Z,1.15
2019-06-07T19:56:53.305Z,0.95
2019-06-07T19:59:22.837Z,0.70
2019-06-07T20:01:53.560Z,1.17
2019-06-07T20:04:23.080Z,0.98
2019-06-07T20:06:52.488Z,0.93
2019-06-07T20:09:21.874Z,1.30
2019-06-07T20:11:51.351Z,1.10
2019-06-07T20:14:20.817Z,1.00
2019-06-07T20:16:50.220Z,1.17
2019-06-07T20:19:19.626Z,0.85
2019-06-07T20:21:49.108Z,1.10
2019-06-07T20:24:27.088Z,0.90
2019-06-07T20:26:50.891Z,1.10
2019-06-07T20:29:25.841Z,1.07
2019-06-07T20:31:51.372Z,1.07
2019-06-07T20:34:20.768Z,0.98
2019-06-07T20:36:50.157Z,0.90
2019-06-07T20:39:33.871Z,0.80
2019-06-07T20:42:03.505Z,1.12
2019-06-07T20:44:33.254Z,0.98
2019-06-07T20:47:04.081Z,1.07
2019-06-07T20:49:33.813Z,0.93
2019-06-07T20:52:04.729Z,0.90
2019-06-07T20:54:34.310Z,1.05
2019-06-07T20:57:04.776Z,0.82
2019-06-07T20:59:34.354Z,1.10
2019-06-07T21:02:05.209Z,1.10
2019-06-07T21:04:34.677Z,0.50
2019-06-07T21:07:05.347Z,1.10
2019-06-07T21:09:34.900Z,0.72
2019-06-07T21:12:04.299Z,0.80
2019-06-07T21:14:33.686Z,0.70
2019-06-07T21:17:04.180Z,0.95
2019-06-07T21:19:33.716Z,1.17
2019-06-07T21:22:04.478Z,1.02
2019-06-07T21:24:34.087Z,0.88
2019-06-07T21:27:05.238Z,0.82
2019-06-07T21:29:34.915Z,0.60
2019-06-07T21:32:05.436Z,0.72
2019-06-07T21:34:36.178Z,0.57
2019-06-07T21:37:05.687Z,0.53
2019-06-07T21:39:35.150Z,0.80
2019-06-07T21:42:04.549Z,1.00
2019-06-07T21:44:35.030Z,0.90
2019-06-07T21:47:04.484Z,1.22
2019-06-07T21:49:33.908Z,0.80
2019-06-07T21:52:04.371Z,0.80
2019-06-07T21:54:33.971Z,0.78
2019-06-07T21:57:04.667Z,0.82
2019-06-07T21:59:34.259Z,0.95
2019-06-07T22:02:05.381Z,0.93
2019-06-07T22:04:34.920Z,0.88
2019-06-07T22:07:05.298Z,0.80
2019-06-07T22:09:34.864Z,1.02
2019-06-07T22:12:18.206Z,0.80
2019-06-07T22:14:47.672Z,0.95
2019-06-07T22:17:17.075Z,1.05
2019-06-07T22:19:46.503Z,0.95
2019-06-07T22:22:15.954Z,1.02
2019-06-07T22:24:45.351Z,1.02
2019-06-07T22:27:15.655Z,0.90
2019-06-07T22:29:46.272Z,1.10
2019-06-07T22:32:15.657Z,1.07
2019-06-07T22:34:45.041Z,1.40
2019-06-07T22:37:33.785Z,0.88
2019-06-07T22:40:06.238Z,1.00
2019-06-07T22:42:35.800Z,0.90
2019-06-07T22:45:07.930Z,0.80
2019-06-07T22:47:37.602Z,1.27
2019-06-07T22:50:11.049Z,1.00
2019-06-07T22:52:41.896Z,1.07
2019-06-07T22:55:12.160Z,1.12
2019-06-07T22:57:55.643Z,0.80
2019-06-07T23:00:27.321Z,1.00
2019-06-07T23:02:56.875Z,0.80
2019-06-07T23:05:26.346Z,1.27
2019-06-07T23:07:55.872Z,1.37
2019-06-07T23:10:25.447Z,0.90
2019-06-07T23:12:54.836Z,1.05
2019-06-07T23:15:24.234Z,1.05
2019-06-07T23:17:53.627Z,1.62
2019-06-07T23:20:23.204Z,1.10
2019-06-07T23:22:52.658Z,1.12
2019-06-07T23:25:24.326Z,1.00
2019-06-07T23:27:53.141Z,0.90
2019-06-07T23:30:22.596Z,1.05
2019-06-07T23:32:52.088Z,1.22
2019-06-07T23:35:21.477Z,1.30
2019-06-07T23:37:50.943Z,1.67
2019-06-07T23:40:21.586Z,1.60
2019-06-07T23:42:52.281Z,1.30
2019-06-07T23:45:21.826Z,1.00
2019-06-07T23:47:51.298Z,0.70
2019-06-07T23:50:21.868Z,1.35
2019-06-07T23:52:51.457Z,1.15
2019-06-07T23:55:22.185Z,1.15
2019-06-07T23:57:51.901Z,1.37
